LFK - Angelina County

Pirep is a free, collaborative database of all public and private airports located within the United States. All pilots are welcome to contribute, edit, and improve any airport they have local knowledge about, no registration required.
Uploaded photos will be licensed under a CC BY-SA 4.0 license. Please only upload photos you have the rights to use.
Tags
Public
Food
METAR / TAF
Edit Tags
Camping
Lodging
Car Rental
Bicycles
Swimming
Golfing
Fishing
Hot Springs
Museum
Flying Clubs
Airpark
Upcoming Events
No upcoming events. Is anything happening here soon?
*
*
*

Where exactly on/near the airport is this event taking place?

Is there a webpage with more information for this event?

Who should be contacted for more information?

What is this event all about?

Repeat every
Description
Last updated: 2023-05-29 16:32:35 CDT
Transient Parking
Fuel Location
Landing & Tie-down Fees
Crew Car Availability
Flying Clubs
WiFi Access
Airport Statistics
Location: Lufkin, TX
Elevation: 295ft
Sectional: Houston
Activation date: Aug 1944
Fuel: 100LL, A+ (prices)
Runway 07/25: 5,400ft
Runway 16/34: 4,311ft
Access: Open to the public
Current Weather — VFR
  • Weather data is strictly informational and not for flight planning purposes.
  • METAR
    2024-05-29 11:53:00 CDT
    Ceiling Wind Temperature Dewpoint Weather Visbility
    Sky clear 110° @ 9kt 77°F 73°F N/A 10SM
    Raw: KLFK 291653Z AUTO 11009KT 10SM CLR 25/23 A3008 RMK AO2 RAE10 SLP181 P0001 T02500233
  • TAF
    2024-05-29 13:00:00 CDT – 2024-05-29 19:00:00 CDT
    Ceiling Wind Weather Visbility
    5,000ft 110° @ 5kt N/A 6SM
    Clouds: Broken @ 5,000ft
    Raw: KLFK 291720Z 2918/3018 11005KT P6SM BKN050 FM300000 VRB03KT P6SM SCT035 FM300600 VRB03KT P6SM BKN025 FM301000 VRB03KT P6SM OVC015 FM301500 12005KT P6SM VCSH OVC010
  • TAF
    2024-05-29 19:00:00 CDT – 2024-05-30 01:00:00 CDT
    Ceiling Wind Weather Visbility
    Sky clear Variable N/A 6SM
    Clouds: Scattered @ 3,500ft
    Raw: KLFK 291720Z 2918/3018 11005KT P6SM BKN050 FM300000 VRB03KT P6SM SCT035 FM300600 VRB03KT P6SM BKN025 FM301000 VRB03KT P6SM OVC015 FM301500 12005KT P6SM VCSH OVC010
  • TAF
    2024-05-30 01:00:00 CDT – 2024-05-30 05:00:00 CDT
    Ceiling Wind Weather Visbility
    2,500ft Variable N/A 6SM
    Clouds: Broken @ 2,500ft
    Raw: KLFK 291720Z 2918/3018 11005KT P6SM BKN050 FM300000 VRB03KT P6SM SCT035 FM300600 VRB03KT P6SM BKN025 FM301000 VRB03KT P6SM OVC015 FM301500 12005KT P6SM VCSH OVC010
  • TAF
    2024-05-30 05:00:00 CDT – 2024-05-30 10:00:00 CDT
    Ceiling Wind Weather Visbility
    1,500ft Variable N/A 6SM
    Clouds: Overcast @ 1,500ft
    Raw: KLFK 291720Z 2918/3018 11005KT P6SM BKN050 FM300000 VRB03KT P6SM SCT035 FM300600 VRB03KT P6SM BKN025 FM301000 VRB03KT P6SM OVC015 FM301500 12005KT P6SM VCSH OVC010
  • TAF
    2024-05-30 10:00:00 CDT – 2024-05-30 13:00:00 CDT
    Ceiling Wind Weather Visbility
    1,000ft 120° @ 5kt Showers in vicinity 6SM
    Clouds: Overcast @ 1,000ft
    Raw: KLFK 291720Z 2918/3018 11005KT P6SM BKN050 FM300000 VRB03KT P6SM SCT035 FM300600 VRB03KT P6SM BKN025 FM301000 VRB03KT P6SM OVC015 FM301500 12005KT P6SM VCSH OVC010
Click/tap to add an annotation marker to the map
Airport Webcams
No webcams added yet.
Direct links to live image URLs will be displayed inline on this page. URLs to separate webpages will be linked to.
URL:
Direct links to live image URLs will be displayed inline on this page. URLs to separate webpages will be linked to.
URL:
Remarks
  • Rwy 34 100 ft x 199 ft paved safety area.
  • For cd if una to ctc on fss freq, ctc houston artcc at 281-230-5622.
  • Dusk-dawn. mirl rwys 07/25 & 16/34 preset med intst; to incr intst and actvt malsr rwy 07 - ctaf. papi rwy 25; vasi rwy 16 & 34 opr consly.
  • Unicom mnt fm 0600-1900.
  • Http://www.angelinacounty.net/departments/airport.
  • Svc fee chrgd for fuel aft 1900; call 936-635-1542.
  • 296 ft paved swy nw end.
  • Apch slope 24;1 to dsplcd thr.
Comments
Leave a comment What was your experience like at this airport?